Latest Weather Observations for Mackay

IDQ60801

Issued at 6:05 am EST Wednesday 24 September 2014 (issued every 30 minutes, with the page automatically refreshed every 10 minutes)

About weather observations | Map of weather stations | Latest weather observations for QLD | Other Formats
Station Details ID: 033119 Name: MACKAY M.O Lat: -21.12 Lon: 149.22 Height: 30.26 m
Data from the previous 72 hours. | See also: Recent months at Mackay
Date/Time
EST
Temp
°C
App
Temp
°C
Dew
Point
Rel
Hum
%
Delta-T
°C
Wind Press
QNH
hPa
Press
MSL
hPa
Rain
since 9 am
mm
Dir
 
Spd
km/h
Gust
km/h
Spd
kts
Gust
kts
24/06:00am 21.4 22.2 18.2 82 2.0 E 11 22 6 12 1020.4 1020.3 1.6
24/05:30am 21.0 22.1 18.9 88 1.3 ESE 11 20 6 11 1020.1 1020.0 1.6
24/05:00am 21.1 20.4 18.7 86 1.5 E 20 28 11 15 1019.9 1019.8 1.6
24/04:30am 20.9 21.2 18.8 88 1.3 ESE 15 20 8 11 1019.8 1019.7 1.6
24/04:00am 20.8 20.8 18.1 84 1.7 ESE 15 26 8 14 1019.6 1019.5 1.6
24/03:30am 20.1 20.7 18.7 92 0.9 ESE 13 26 7 14 1019.6 1019.5 1.6
24/03:00am 20.9 20.2 18.3 85 1.6 SE 19 30 10 16 1019.6 1019.5 1.0
24/02:30am 20.7 20.5 18.5 87 1.4 ESE 17 26 9 14 1019.7 1019.6 1.0
24/02:00am 20.3 20.1 18.4 89 1.2 SE 17 26 9 14 1019.9 1019.8 1.0
24/01:30am 21.0 21.7 18.9 88 1.3 E 13 20 7 11 1020.2 1020.1 1.0
24/01:00am 20.5 20.6 19.1 92 0.9 E 17 26 9 14 1020.4 1020.3 1.0
24/12:30am 20.7 20.0 18.6 88 1.3 E 20 33 11 18 1020.7 1020.6 1.0
24/12:00am 20.8 20.6 18.6 87 1.4 ESE 17 26 9 14 1021.0 1020.9 1.0
 
Date/Time
EST
Temp
°C
App
Temp
°C
Dew
Point
Rel
Hum
%
Delta-T
°C
Wind Press
QNH
hPa
Press
MSL
hPa
Rain
since 9 am
mm
Dir
 
Spd
km/h
Gust
km/h
Spd
kts
Gust
kts
23/11:30pm 21.2 21.1 18.8 86 1.5 SE 17 28 9 15 1021.2 1021.1 1.0
23/11:00pm 20.8 20.6 18.6 87 1.4 ESE 17 26 9 14 1021.4 1021.3 1.0
23/10:30pm 20.4 20.8 19.0 92 0.9 ESE 15 26 8 14 1021.4 1021.3 1.0
23/10:00pm 20.0 19.1 18.1 89 1.2 SE 20 33 11 18 1021.4 1021.3 1.0
23/09:30pm 21.4 20.7 18.2 82 2.0 ESE 19 32 10 17 1021.6 1021.5 0.4
23/09:00pm 21.5 20.6 17.8 79 2.3 ESE 19 30 10 16 1021.6 1021.5 0.4
23/08:30pm 21.7 21.1 17.6 77 2.5 ESE 17 30 9 16 1021.6 1021.5 0.4
23/08:00pm 21.5 20.2 16.9 75 2.8 ESE 19 32 10 17 1021.3 1021.2 0.4
23/07:30pm 21.6 20.4 17.0 75 2.8 ESE 19 30 10 16 1021.0 1020.9 0.4
23/07:00pm 21.6 20.1 16.8 74 2.9 ESE 20 33 11 18 1020.6 1020.5 0.4
23/06:30pm 21.4 20.1 17.3 77 2.5 ESE 20 35 11 19 1020.5 1020.4 0.4
23/06:00pm 20.7 20.4 18.3 86 1.5 SE 17 28 9 15 1020.4 1020.3 0.4
23/05:30pm 20.7 20.0 18.6 88 1.3 ESE 20 32 11 17 1020.3 1020.2 0.2
23/05:00pm 21.3 20.4 18.2 82 1.9 SSE 20 32 11 17 1019.9 1019.8 0.0
23/04:30pm 21.1 20.9 18.4 84 1.7 ESE 17 28 9 15 1019.9 1019.8 0.0
23/04:00pm 23.1 22.1 17.6 71 3.4 SE 19 30 10 16 1019.7 1019.6 0.0
23/03:30pm 23.4 22.6 18.0 71 3.4 ESE 19 33 10 18 1019.7 1019.6 0.0
23/03:00pm 24.0 23.2 18.1 69 3.7 SE 19 32 10 17 1019.7 1019.6 0.0
23/02:30pm 23.9 23.6 18.2 70 3.6 SE 17 39 9 21 1019.7 1019.6 0.0
23/02:00pm 23.6 22.5 17.8 70 3.6 SE 20 35 11 19 1019.9 1019.8 0.0
23/01:30pm 24.0 23.2 17.9 68 3.8 SE 19 28 10 15 1020.3 1020.2 0.0
23/01:00pm 24.3 23.6 18.3 69 3.8 ESE 19 30 10 16 1020.4 1020.3 0.0
23/12:30pm 24.1 22.6 17.7 67 4.0 ESE 22 35 12 19 1020.7 1020.6 0.0
23/12:00pm 23.9 23.0 17.8 68 3.8 ESE 19 35 10 19 1021.0 1020.9 0.0
23/11:30am 23.3 22.4 17.7 71 3.5 ESE 19 32 10 17 1021.4 1021.3 0.0
23/11:00am 23.8 22.8 17.9 69 3.7 ESE 20 32 11 17 1021.6 1021.5 0.0
23/10:30am 23.7 22.8 17.8 69 3.7 ESE 19 30 10 16 1021.5 1021.4 0.0
23/10:00am 23.5 21.9 17.4 68 3.8 ESE 22 33 12 18 1021.6 1021.5 0.0
23/09:30am 22.7 21.7 17.5 72 3.2 ESE 19 32 10 17 1021.6 1021.5 0.0
23/09:00am 23.0 21.6 17.0 69 3.7 E 20 35 11 19 1021.6 1021.5 15.2
23/08:30am 21.9 21.3 18.4 80 2.2 SE 19 28 10 15 1021.6 1021.5 15.2
23/08:00am 21.3 20.7 18.4 83 1.8 SE 19 30 10 16 1021.5 1021.4 15.2
23/07:30am 21.8 21.2 18.4 81 2.1 SE 19 28 10 15 1021.0 1020.9 15.2
23/07:00am 21.1 19.9 18.4 84 1.7 ESE 22 37 12 20 1020.5 1020.4 15.2
23/06:30am 20.4 19.9 18.6 89 1.1 SE 19 32 10 17 1020.1 1020.0 14.8
23/06:00am 20.3 19.5 18.0 87 1.4 SE 19 30 10 16 1019.9 1019.8 14.8
23/05:30am 20.2 19.4 18.4 89 1.1 SE 20 30 11 16 1019.5 1019.4 14.8
23/05:00am 20.1 19.2 18.3 89 1.1 SE 20 35 11 19 1019.2 1019.1 14.8
23/04:30am 20.0 19.2 18.1 89 1.2 SE 19 32 10 17 1019.2 1019.1 14.8
23/04:05am 19.6 18.4 18.3 92 0.8 SE 22 33 12 18 1018.9 1018.8 14.8
23/04:00am 19.6 18.4 18.5 93 0.7 SE 22 35 12 19 1018.8 1018.7 14.8
23/03:30am 19.6 18.4 18.3 92 0.8 SE 22 37 12 20 1018.7 1018.6 14.8
23/03:00am 19.8 18.2 18.3 91 0.9 SE 24 33 13 18 1018.8 1018.7 14.6
23/02:30am 19.3 17.7 18.3 94 0.6 SE 24 41 13 22 1018.8 1018.7 14.6
23/02:00am 19.3 17.4 18.5 95 0.5 SE 26 43 14 23 1019.0 1018.9 14.6
23/01:30am 19.1 17.2 18.6 97 0.3 SSE 26 39 14 21 1019.2 1019.1 14.4
23/01:29am 19.2 17.3 18.6 96 0.4 SSE 26 39 14 21 1019.3 1019.2 14.4
23/01:00am 18.3 17.2 17.8 97 0.3 S 20 30 11 16 1019.5 1019.4 14.4
23/12:45am 18.2 17.2 17.9 98 0.2 S 20 28 11 15 1019.8 1019.7 14.4
23/12:30am 18.3 18.2 17.8 97 0.3 S 15 19 8 10 1020.2 1020.1 14.4
23/12:07am 18.5 18.8 17.8 96 0.4 S 13 22 7 12 1020.4 1020.3 13.8
23/12:00am 18.8 18.8 18.0 95 0.5 SE 15 24 8 13 1020.4 1020.3 13.4
 
Date/Time
EST
Temp
°C
App
Temp
°C
Dew
Point
Rel
Hum
%
Delta-T
°C
Wind Press
QNH
hPa
Press
MSL
hPa
Rain
since 9 am
mm
Dir
 
Spd
km/h
Gust
km/h
Spd
kts
Gust
kts
22/11:30pm 19.7 19.0 17.4 86 1.4 SE 17 28 9 15 1020.3 1020.2 5.6
22/11:00pm 19.3 18.0 17.3 88 1.2 SSE 20 30 11 16 1020.7 1020.6 5.6
22/10:30pm 19.0 17.6 18.0 94 0.6 SSE 22 32 12 17 1020.9 1020.8 5.6
22/10:00pm 18.7 16.6 18.0 96 0.4 SSE 26 37 14 20 1020.9 1020.8 5.6
22/09:53pm 18.6 16.5 18.1 97 0.3 S 26 37 14 20 1021.0 1020.9 5.6
22/09:39pm 18.3 16.1 17.8 97 0.3 S 26 35 14 19 1021.1 1021.0 5.6
22/09:30pm 18.3 16.1 17.8 97 0.3 S 26 37 14 20 1021.1 1021.0 5.4
22/09:01pm 18.3 17.1 17.5 95 0.5 S 20 30 11 16 1021.1 1021.0 4.4
22/09:00pm 18.3 17.1 17.5 95 0.5 S 20 30 11 16 1021.1 1021.0 4.4
22/08:30pm 18.7 17.9 17.9 95 0.5 S 19 26 10 14 1021.0 1020.9 4.4
22/08:00pm 18.9 18.3 17.6 92 0.8 SE 17 28 9 15 1020.7 1020.6 4.4
22/07:30pm 18.3 17.4 17.8 97 0.3 SSE 19 28 10 15 1020.3 1020.2 4.4
22/07:00pm 17.2 16.3 16.9 98 0.2 S 17 22 9 12 1020.0 1019.9 4.4
22/06:30pm 17.1 16.9 16.8 98 0.2 SSW 13 17 7 9 1020.3 1020.2 4.4
22/06:00pm 17.5 17.5 17.2 98 0.2 S 13 17 7 9 1019.7 1019.6 4.4
22/05:30pm 17.5 17.9 17.2 98 0.2 S 11 17 6 9 1019.7 1019.6 4.4
22/05:00pm 17.5 16.7 17.2 98 0.2 SSE 17 28 9 15 1019.1 1019.0 3.6
22/04:30pm 17.4 16.1 16.7 96 0.4 SSW 19 35 10 19 1018.9 1018.8 2.2
22/04:00pm 18.2 17.1 17.2 94 0.6 SW 19 28 10 15 1018.1 1017.9 1.6
22/03:30pm 21.8 22.6 17.2 75 2.8 NE 9 17 5 9 1017.9 1017.7 1.6
22/03:00pm 22.1 22.6 17.4 74 2.9 NE 11 20 6 11 1017.6 1017.4 1.6
22/02:30pm 22.0 21.4 16.7 72 3.2 NE 15 24 8 13 1017.6 1017.4 1.6
22/02:00pm 21.2 20.7 16.8 76 2.7 NE 15 24 8 13 1017.7 1017.5 1.6
22/01:30pm 20.5 18.5 14.9 70 3.3 NE 19 33 10 18 1017.9 1017.7 1.6
22/01:00pm 20.9 20.4 17.7 82 2.0 NE 17 28 9 15 1018.1 1017.9 1.6
22/12:30pm 21.7 20.9 18.5 82 2.0 E 20 26 11 14 1018.4 1018.3 1.6
22/12:00pm 20.9 21.9 19.5 92 0.9 SSE 13 20 7 11 1019.0 1018.9 1.2
22/11:30am 23.0 23.1 18.4 75 2.9 SSE 15 24 8 13 1019.4 1019.3 0.4
22/11:00am 22.1 21.8 18.3 79 2.4 SE 17 24 9 13 1019.9 1019.8 0.4
22/10:30am 20.9 21.1 18.5 86 1.5 SE 15 26 8 14 1020.2 1020.1 0.4
22/10:00am 20.1 20.4 18.7 92 0.9 E 15 24 8 13 1020.4 1020.3 0.4
22/09:30am 21.6 21.2 18.1 80 2.2 SE 17 32 9 17 1020.1 1020.0 0.0
22/09:00am 20.8 20.4 18.1 84 1.7 SE 17 28 9 15 1020.4 1020.3 3.6
22/08:30am 19.5 19.1 18.0 91 0.9 SE 17 22 9 12 1020.3 1020.2 3.6
22/08:00am 21.1 20.3 18.4 84 1.7 E 20 28 11 15 1020.0 1019.9 2.0
22/07:30am 20.3 19.1 18.5 89 1.1 E 22 33 12 18 1019.5 1019.4 1.8
22/07:00am 21.6 20.7 18.2 81 2.1 E 20 30 11 16 1019.5 1019.4 0.0
22/06:30am 21.6 20.8 16.1 71 3.3 ENE 15 26 8 14 1019.0 1018.9 0.0
22/06:00am 21.3 20.1 16.0 72 3.2 ENE 17 28 9 15 1018.7 1018.6 0.0
22/05:30am 20.6 19.3 16.8 79 2.3 ENE 19 26 10 14 1018.2 1018.0 0.0
22/05:00am 21.7 19.8 16.8 73 3.0 ENE 22 37 12 20 1018.1 1017.9 0.0
22/04:30am 21.6 19.9 17.2 76 2.7 E 22 33 12 18 1017.7 1017.5 0.0
22/04:00am 21.5 19.7 16.9 75 2.8 ENE 22 32 12 17 1017.8 1017.6 0.0
22/03:30am 21.6 19.2 16.5 73 3.1 E 24 33 13 18 1017.7 1017.5 0.0
22/03:00am 21.2 19.4 17.8 81 2.1 E 24 35 13 19 1017.9 1017.7 0.0
22/02:30am 21.7 19.4 16.6 73 3.1 E 24 33 13 18 1018.0 1017.8 0.0
22/02:00am 21.6 19.5 16.3 72 3.2 E 22 32 12 17 1018.6 1018.5 0.0
22/01:30am 21.7 19.8 16.6 73 3.1 E 22 33 12 18 1018.9 1018.8 0.0
22/01:00am 21.8 19.4 16.5 72 3.2 E 24 39 13 21 1019.1 1019.0 0.0
22/12:30am 21.9 19.1 16.3 70 3.4 E 26 35 14 19 1019.4 1019.3 0.0
22/12:00am 21.8 18.9 16.2 70 3.4 E 26 35 14 19 1019.6 1019.5 0.0
 
Date/Time
EST
Temp
°C
App
Temp
°C
Dew
Point
Rel
Hum
%
Delta-T
°C
Wind Press
QNH
hPa
Press
MSL
hPa
Rain
since 9 am
mm
Dir
 
Spd
km/h
Gust
km/h
Spd
kts
Gust
kts
21/11:30pm 21.9 18.9 15.9 68 3.6 E 26 35 14 19 1020.0 1019.9 0.0
21/11:00pm 22.0 20.0 16.4 70 3.4 E 22 33 12 18 1020.5 1020.4 0.0
21/10:30pm 22.1 20.6 16.7 71 3.3 E 20 32 11 17 1020.7 1020.6 0.0
21/10:00pm 21.9 20.9 16.6 72 3.2 E 17 28 9 15 1020.7 1020.6 0.0
21/09:30pm 21.9 20.2 16.3 70 3.4 E 20 32 11 17 1020.7 1020.6 0.0
21/09:00pm 21.9 20.9 16.5 71 3.3 E 17 24 9 13 1020.5 1020.4 0.0
21/08:30pm 22.1 20.8 15.9 68 3.7 E 17 28 9 15 1020.4 1020.3 0.0
21/08:00pm 21.9 19.8 16.1 69 3.5 E 22 35 12 19 1020.3 1020.2 0.0
21/07:30pm 22.1 21.1 16.5 70 3.4 E 17 30 9 16 1020.0 1019.9 0.0
21/07:00pm 22.0 20.1 15.8 68 3.7 E 20 32 11 17 1019.7 1019.6 0.0
21/06:30pm 22.0 20.2 16.0 68 3.6 E 20 32 11 17 1019.2 1019.1 0.0
21/06:00pm 21.9 20.5 16.6 72 3.2 E 19 30 10 16 1019.0 1018.9 0.0
21/05:30pm 22.0 20.9 16.4 70 3.4 ESE 17 26 9 14 1019.1 1019.0 0.0
21/05:00pm 22.4 20.7 16.3 68 3.7 E 20 30 11 16 1019.0 1018.9 0.0
21/04:30pm 22.6 21.2 16.5 68 3.7 E 19 28 10 15 1018.9 1018.8 0.0
21/04:00pm 22.9 21.0 15.8 64 4.3 E 20 30 11 16 1018.7 1018.6 0.0
21/03:30pm 22.8 21.8 16.6 68 3.8 E 17 24 9 13 1018.8 1018.7 0.0
21/03:00pm 23.3 22.4 16.9 67 3.9 ESE 17 26 9 14 1019.2 1019.1 0.0
21/02:30pm 23.3 22.5 17.1 68 3.8 ESE 17 26 9 14 1019.5 1019.4 0.0
21/02:00pm 23.1 22.3 16.2 65 4.2 E 15 26 8 14 1019.5 1019.4 0.0
21/01:30pm 23.8 22.3 16.2 62 4.6 E 19 32 10 17 1019.6 1019.5 0.0
21/01:00pm 23.1 21.5 16.5 66 4.0 E 20 33 11 18 1019.5 1019.4 0.0
21/12:30pm 23.0 21.4 16.6 67 3.9 E 20 32 11 17 1019.8 1019.7 0.0
21/12:00pm 23.2 22.5 17.4 70 3.6 E 17 28 9 15 1020.1 1020.0 0.0
21/11:30am 24.0 22.4 16.5 63 4.6 E 20 30 11 16 1020.2 1020.1 0.0
21/11:00am 23.7 22.3 17.0 66 4.1 E 20 32 11 17 1020.4 1020.3 0.0
21/10:30am 23.7 22.3 17.0 66 4.1 E 20 32 11 17 1020.6 1020.5 0.0
21/10:00am 23.2 22.0 17.0 68 3.8 E 19 30 10 16 1021.0 1020.9 0.0
21/09:30am 23.3 21.6 17.1 68 3.8 E 22 32 12 17 1020.9 1020.8 0.0
21/09:00am 23.5 22.6 16.8 66 4.1 E 17 28 9 15 1020.7 1020.6 0.0
21/08:30am 22.8 21.8 16.7 68 3.7 E 17 26 9 14 1020.5 1020.4 0.0
21/08:00am 22.4 21.1 16.7 70 3.5 E 19 30 10 16 1020.4 1020.3 0.0
21/07:30am 22.4 21.0 17.0 71 3.3 E 20 28 11 15 1020.2 1020.1 0.0
21/07:00am 21.8 21.3 16.9 73 3.0 E 15 22 8 12 1019.7 1019.6 0.0
21/06:30am 21.7 20.3 16.6 73 3.1 E 19 24 10 13 1019.3 1019.2 0.0

Other Formats:

Comma delimited format used in spreadsheet applications
http://www.bom.gov.au/fwo/IDQ60801/IDQ60801.94367.axf

JavaScript Object Notation format (JSON) in row-major order
http://www.bom.gov.au/fwo/IDQ60801/IDQ60801.94367.json